createdAt,value
2023-04-14T00:00:38.564Z,15.10
2023-04-14T00:03:09.387Z,15.20
2023-04-14T00:05:40.354Z,15.30
2023-04-14T00:08:10.995Z,15.40
2023-04-14T00:10:41.671Z,15.50
2023-04-14T00:13:11.994Z,15.70
2023-04-14T00:15:44.630Z,15.80
2023-04-14T00:18:35.424Z,15.90
2023-04-14T00:24:03.008Z,16.10
2023-04-14T00:29:48.420Z,16.40
2023-04-14T00:32:25.494Z,16.60
2023-04-14T00:34:56.700Z,16.70
2023-04-14T00:38:00.908Z,16.80
2023-04-14T00:40:39.868Z,16.90
2023-04-14T00:43:10.313Z,17.00
2023-04-14T00:46:04.151Z,17.10
2023-04-14T00:49:13.815Z,17.20
2023-04-14T00:51:49.764Z,17.10
2023-04-14T00:54:24.411Z,17.00
2023-04-14T00:56:59.619Z,16.90
2023-04-14T01:02:47.599Z,16.70
2023-04-14T01:05:20.188Z,16.70
2023-04-14T01:08:08.410Z,16.70
2023-04-14T01:10:49.044Z,16.80
2023-04-14T01:13:39.814Z,16.80
2023-04-14T01:16:47.239Z,16.80
2023-04-14T01:19:35.536Z,16.90
2023-04-14T01:22:11.602Z,17.20
2023-04-14T01:25:03.409Z,17.30
2023-04-14T01:27:36.438Z,17.30
2023-04-14T01:30:42.457Z,17.40
2023-04-14T01:33:21.099Z,17.40
2023-04-14T01:36:01.790Z,17.30
2023-04-14T01:38:38.049Z,17.20
2023-04-14T01:41:11.413Z,17.30
2023-04-14T01:43:46.492Z,17.40
2023-04-14T01:46:19.969Z,17.60
2023-04-14T01:48:53.665Z,17.80
2023-04-14T01:51:26.839Z,17.90
2023-04-14T01:53:59.496Z,18.00
2023-04-14T01:56:32.777Z,17.90
2023-04-14T01:59:04.749Z,17.90
2023-04-14T02:01:38.486Z,18.00
2023-04-14T02:04:12.183Z,18.00
2023-04-14T02:06:44.738Z,18.00
2023-04-14T02:09:17.558Z,18.00
2023-04-14T02:11:49.336Z,18.00
2023-04-14T02:14:21.708Z,18.00
2023-04-14T02:16:53.898Z,18.00
2023-04-14T02:19:25.559Z,18.00
2023-04-14T02:21:57.775Z,18.10
2023-04-14T02:24:28.492Z,18.30
2023-04-14T02:27:13.329Z,18.40
2023-04-14T02:29:52.680Z,18.50
2023-04-14T02:32:32.176Z,18.50
2023-04-14T02:35:20.780Z,18.50
2023-04-14T02:37:55.904Z,18.50
2023-04-14T02:40:32.856Z,18.40
2023-04-14T02:43:10.175Z,18.50
2023-04-14T02:45:46.233Z,18.70
2023-04-14T02:48:20.105Z,18.90
2023-04-14T02:50:55.181Z,19.00
2023-04-14T02:53:28.792Z,19.10
2023-04-14T02:56:00.404Z,19.30
2023-04-14T02:58:33.711Z,19.30
2023-04-14T03:01:05.437Z,19.30
2023-04-14T03:03:39.569Z,19.20
2023-04-14T03:06:11.060Z,19.30
2023-04-14T03:08:42.749Z,19.20
2023-04-14T03:11:16.801Z,19.10
2023-04-14T03:13:49.326Z,19.00
2023-04-14T03:16:23.865Z,18.90
2023-04-14T03:18:56.478Z,18.90
2023-04-14T03:21:28.670Z,19.00
2023-04-14T03:24:00.292Z,19.10
2023-04-14T03:26:35.954Z,19.10
2023-04-14T03:29:10.360Z,19.10
2023-04-14T03:31:41.956Z,19.10
2023-04-14T03:34:24.823Z,19.20
2023-04-14T03:36:58.732Z,19.20
2023-04-14T03:39:36.489Z,19.20
2023-04-14T03:42:11.174Z,19.30
2023-04-14T03:44:46.306Z,19.40
2023-04-14T03:47:19.223Z,19.40
2023-04-14T03:49:53.078Z,19.50
2023-04-14T03:52:25.081Z,19.60
2023-04-14T03:55:01.119Z,19.70
2023-04-14T03:57:35.208Z,19.70
2023-04-14T04:00:08.167Z,19.70
2023-04-14T04:02:41.562Z,19.80
2023-04-14T04:05:13.635Z,19.90
2023-04-14T04:07:47.442Z,19.90
2023-04-14T04:10:19.016Z,19.80
2023-04-14T04:12:52.273Z,19.70
2023-04-14T04:15:23.186Z,19.40
2023-04-14T04:17:54.860Z,19.10
2023-04-14T04:20:26.563Z,18.80
2023-04-14T04:23:01.724Z,18.50
2023-04-14T04:25:36.062Z,18.30
2023-04-14T04:28:09.462Z,18.10
2023-04-14T04:30:43.448Z,18.00
2023-04-14T04:33:17.038Z,18.00
2023-04-14T04:35:49.971Z,18.10
2023-04-14T04:38:23.021Z,18.30
2023-04-14T04:40:54.761Z,18.50
2023-04-14T04:43:25.415Z,18.70
2023-04-14T04:46:03.164Z,19.00
2023-04-14T04:48:34.243Z,19.20
2023-04-14T04:51:07.019Z,19.40
2023-04-14T04:53:37.710Z,19.60
2023-04-14T04:56:10.067Z,19.50
2023-04-14T04:58:41.707Z,19.40
2023-04-14T05:01:15.005Z,19.30
2023-04-14T05:03:45.831Z,19.20
2023-04-14T05:06:16.741Z,19.20
2023-04-14T05:08:47.407Z,19.10
2023-04-14T05:11:19.302Z,19.10
2023-04-14T05:13:50.519Z,19.00
2023-04-14T05:16:22.756Z,18.80
2023-04-14T05:18:54.367Z,18.60
2023-04-14T05:21:25.181Z,18.50
2023-04-14T05:23:55.978Z,18.40
2023-04-14T05:26:49.162Z,18.30
2023-04-14T05:29:17.344Z,18.20
2023-04-14T05:31:48.363Z,18.10
2023-04-14T05:34:19.139Z,18.00
2023-04-14T05:36:49.950Z,18.00
2023-04-14T05:39:20.656Z,17.90
2023-04-14T05:41:51.356Z,17.90
2023-04-14T05:44:22.164Z,17.90
2023-04-14T05:46:54.192Z,17.90
2023-04-14T05:49:24.880Z,18.10
2023-04-14T05:51:58.719Z,18.20
2023-04-14T05:54:29.402Z,18.30
2023-04-14T05:57:00.209Z,18.50
2023-04-14T05:59:30.873Z,18.60
2023-04-14T06:02:03.553Z,18.70
2023-04-14T06:04:34.511Z,18.80
2023-04-14T06:07:06.141Z,18.90
2023-04-14T06:09:37.005Z,18.90
2023-04-14T06:12:07.652Z,18.90
2023-04-14T06:14:39.373Z,18.90
2023-04-14T06:17:11.249Z,18.90
2023-04-14T06:19:43.192Z,18.80
2023-04-14T06:22:18.835Z,18.70
2023-04-14T06:24:50.095Z,18.70
2023-04-14T06:27:20.732Z,18.60
2023-04-14T06:29:51.385Z,18.50
2023-04-14T06:32:24.369Z,18.50
2023-04-14T06:35:25.660Z,18.40
2023-04-14T06:38:27.052Z,18.30
2023-04-14T06:41:24.724Z,18.20
2023-04-14T06:44:21.079Z,18.20
2023-04-14T06:46:59.227Z,18.10
2023-04-14T06:49:40.634Z,18.00
2023-04-14T06:52:24.027Z,17.90
2023-04-14T06:55:22.283Z,17.80
2023-04-14T07:00:59.015Z,17.70
2023-04-14T07:09:16.945Z,17.40
2023-04-14T07:12:37.357Z,17.30
2023-04-14T07:15:25.947Z,17.30
2023-04-14T07:18:06.316Z,17.10
2023-04-14T07:20:36.608Z,17.10
2023-04-14T07:23:22.450Z,17.00
2023-04-14T07:26:22.131Z,17.00
2023-04-14T07:28:57.234Z,16.90
2023-04-14T07:31:53.348Z,16.80
2023-04-14T07:37:10.495Z,16.60
2023-04-14T07:39:47.062Z,16.50
2023-04-14T07:42:24.068Z,16.40
2023-04-14T07:44:55.563Z,16.30
2023-04-14T07:47:26.420Z,16.20
2023-04-14T07:49:57.796Z,16.10
2023-04-14T07:52:28.756Z,16.00
2023-04-14T07:55:00.154Z,15.90
2023-04-14T07:57:36.143Z,15.90
2023-04-14T08:00:09.111Z,15.80
2023-04-14T08:02:41.688Z,15.70
2023-04-14T08:05:15.925Z,15.60
2023-04-14T08:07:53.594Z,15.50
2023-04-14T08:10:25.339Z,15.40
2023-04-14T08:13:01.601Z,15.30
2023-04-14T08:15:35.618Z,15.20
2023-04-14T08:18:08.361Z,15.10
2023-04-14T08:20:42.707Z,15.10
2023-04-14T08:23:14.472Z,15.00
2023-04-14T08:25:53.675Z,15.00
2023-04-14T08:28:28.282Z,14.90
2023-04-14T08:31:00.340Z,14.90
2023-04-14T08:33:36.023Z,14.80
2023-04-14T08:36:08.939Z,14.80
2023-04-14T08:38:42.299Z,14.70
2023-04-14T08:41:31.388Z,14.60
2023-04-14T08:44:17.054Z,14.60
2023-04-14T08:46:56.769Z,14.50
2023-04-14T08:50:25.327Z,14.60
2023-04-14T08:53:07.748Z,14.50
2023-04-14T08:55:43.931Z,14.50
2023-04-14T08:58:15.044Z,14.50
2023-04-14T09:00:47.945Z,14.50
2023-04-14T09:03:19.760Z,14.50
2023-04-14T09:05:52.452Z,14.60
2023-04-14T09:08:29.758Z,14.60
2023-04-14T09:11:01.017Z,14.60
2023-04-14T09:13:35.415Z,14.60
2023-04-14T09:16:06.443Z,14.60
2023-04-14T09:18:37.961Z,14.70
2023-04-14T09:21:49.017Z,14.70
2023-04-14T09:24:02.798Z,14.70
2023-04-14T09:26:33.886Z,14.70
2023-04-14T09:29:04.547Z,14.70
2023-04-14T09:31:36.717Z,14.70
2023-04-14T09:34:08.056Z,14.70
2023-04-14T09:36:39.115Z,14.60
2023-04-14T09:39:19.944Z,14.60
2023-04-14T09:41:54.421Z,14.60
2023-04-14T09:44:27.580Z,14.60
2023-04-14T09:47:08.476Z,14.60
2023-04-14T09:49:39.481Z,14.60
2023-04-14T09:52:13.473Z,14.60
2023-04-14T09:54:46.258Z,14.60
2023-04-14T09:57:30.581Z,14.60
2023-04-14T10:00:01.414Z,14.60
2023-04-14T10:02:33.026Z,14.60
2023-04-14T10:05:08.672Z,14.50
2023-04-14T10:07:44.452Z,14.50
2023-04-14T10:10:17.916Z,14.50
2023-04-14T10:12:50.565Z,14.50
2023-04-14T10:15:22.222Z,14.40
2023-04-14T10:17:53.492Z,14.40
2023-04-14T10:20:25.339Z,14.40
2023-04-14T10:22:59.718Z,14.20
2023-04-14T10:25:33.253Z,14.20
2023-04-14T10:28:05.124Z,14.10
2023-04-14T10:30:36.490Z,14.10
2023-04-14T10:33:08.883Z,14.10
2023-04-14T10:35:49.410Z,14.00
2023-04-14T10:38:22.883Z,13.90
2023-04-14T10:40:55.885Z,13.90
2023-04-14T10:43:31.221Z,13.80
2023-04-14T10:46:03.903Z,13.70
2023-04-14T10:48:46.029Z,13.60
2023-04-14T10:51:22.810Z,13.60
2023-04-14T10:54:11.363Z,13.60
2023-04-14T10:56:42.473Z,13.50
2023-04-14T10:59:18.963Z,13.40
2023-04-14T11:01:58.937Z,13.40
2023-04-14T11:04:34.395Z,13.40
2023-04-14T11:07:31.425Z,13.30
2023-04-14T11:10:21.005Z,13.30
2023-04-14T11:13:01.189Z,13.20
2023-04-14T11:15:56.916Z,13.10
2023-04-14T11:19:02.597Z,13.10
2023-04-14T11:21:36.940Z,13.00
2023-04-14T11:24:10.633Z,13.00
2023-04-14T11:29:35.945Z,12.90
2023-04-14T11:32:25.056Z,12.80
2023-04-14T11:34:56.452Z,12.80
2023-04-14T11:37:30.818Z,12.70
2023-04-14T11:40:01.494Z,12.60
2023-04-14T11:42:32.071Z,12.60
2023-04-14T11:45:04.718Z,12.60
2023-04-14T11:47:35.103Z,12.60
2023-04-14T11:50:09.266Z,12.50
2023-04-14T11:52:40.229Z,12.50
2023-04-14T11:55:11.780Z,12.40
2023-04-14T11:57:51.028Z,12.40
2023-04-14T12:00:25.171Z,12.40
2023-04-14T12:03:07.487Z,12.40
2023-04-14T12:05:42.190Z,12.40
2023-04-14T12:08:14.721Z,12.40
2023-04-14T12:10:51.176Z,12.40
2023-04-14T12:13:22.116Z,12.40
2023-04-14T12:15:53.287Z,12.40
2023-04-14T12:18:24.451Z,12.40
2023-04-14T12:21:04.186Z,12.40
2023-04-14T12:23:50.625Z,12.40
2023-04-14T12:26:24.361Z,12.40
2023-04-14T12:29:07.444Z,12.40
2023-04-14T12:31:38.612Z,12.40
2023-04-14T12:34:10.235Z,12.40
2023-04-14T12:37:48.357Z,12.40
2023-04-14T12:40:02.588Z,12.40
2023-04-14T12:42:49.814Z,12.40
2023-04-14T12:45:20.980Z,12.40
2023-04-14T12:47:56.639Z,12.40
2023-04-14T12:50:32.297Z,12.40
2023-04-14T12:53:03.848Z,12.40
2023-04-14T12:55:35.592Z,12.30
2023-04-14T12:58:06.852Z,12.20
2023-04-14T13:00:38.084Z,12.20
2023-04-14T13:03:08.543Z,12.20
2023-04-14T13:05:42.053Z,12.10
2023-04-14T13:08:13.577Z,12.10
2023-04-14T13:10:45.270Z,12.00
2023-04-14T13:13:16.228Z,12.00
2023-04-14T13:16:13.415Z,11.90
2023-04-14T13:18:38.351Z,11.90
2023-04-14T13:21:10.035Z,11.90
2023-04-14T13:23:40.784Z,11.80
2023-04-14T13:28:55.477Z,11.80
2023-04-14T13:31:25.820Z,11.80
2023-04-14T13:33:56.166Z,11.70
2023-04-14T13:36:26.525Z,11.70
2023-04-14T13:38:59.696Z,11.70
2023-04-14T13:41:30.053Z,11.70
2023-04-14T13:44:00.658Z,11.60
2023-04-14T13:46:36.166Z,11.60
2023-04-14T13:49:10.707Z,11.50
2023-04-14T13:51:42.296Z,11.50
2023-04-14T13:54:13.376Z,11.50
2023-04-14T13:56:44.139Z,11.40
2023-04-14T13:59:17.823Z,11.40
2023-04-14T14:01:49.693Z,11.40
2023-04-14T14:04:20.258Z,11.30
2023-04-14T14:06:50.991Z,11.30
2023-04-14T14:09:21.242Z,11.30
2023-04-14T14:11:51.620Z,11.20
2023-04-14T14:14:22.030Z,11.20
2023-04-14T14:16:53.120Z,11.10
2023-04-14T14:19:23.584Z,11.10
2023-04-14T14:21:54.597Z,11.00
2023-04-14T14:24:25.582Z,11.00
2023-04-14T14:26:57.593Z,10.90
2023-04-14T14:29:27.802Z,10.90
2023-04-14T14:31:58.163Z,10.80
2023-04-14T14:34:29.891Z,10.80
2023-04-14T14:37:00.397Z,10.80
2023-04-14T14:39:33.788Z,10.70
2023-04-14T14:42:04.124Z,10.70
2023-04-14T14:44:34.438Z,10.70
2023-04-14T14:47:05.954Z,10.70
2023-04-14T14:49:39.331Z,10.60
2023-04-14T14:52:15.737Z,10.60
2023-04-14T14:54:45.975Z,10.60
2023-04-14T14:57:16.234Z,10.50
2023-04-14T14:59:46.495Z,10.50
2023-04-14T15:02:17.451Z,10.40
2023-04-14T15:04:48.826Z,10.40
2023-04-14T15:07:20.504Z,10.30
2023-04-14T15:09:51.345Z,10.30
2023-04-14T15:12:22.047Z,10.30
2023-04-14T15:14:52.983Z,10.20
2023-04-14T15:17:27.040Z,10.20
2023-04-14T15:19:57.853Z,10.20
2023-04-14T15:22:31.184Z,10.10
2023-04-14T15:25:01.490Z,10.10
2023-04-14T15:27:32.194Z,10.00
2023-04-14T15:30:03.056Z,10.00
2023-04-14T15:32:33.509Z,9.90
2023-04-14T15:35:03.917Z,9.90
2023-04-14T15:37:37.200Z,9.90
2023-04-14T15:40:07.819Z,9.80
2023-04-14T15:42:38.332Z,9.80
2023-04-14T15:45:10.145Z,9.80
2023-04-14T15:47:40.970Z,9.70
2023-04-14T15:50:12.011Z,9.70
2023-04-14T15:52:47.992Z,9.70
2023-04-14T15:55:19.037Z,9.70
2023-04-14T15:57:50.831Z,9.60
2023-04-14T16:00:31.849Z,9.60
2023-04-14T16:03:04.136Z,9.60
2023-04-14T16:05:34.848Z,9.50
2023-04-14T16:08:06.528Z,9.50
2023-04-14T16:10:56.575Z,9.50
2023-04-14T16:13:26.896Z,9.50
2023-04-14T16:15:57.238Z,9.40
2023-04-14T16:18:27.834Z,9.40
2023-04-14T16:20:59.174Z,9.40
2023-04-14T16:23:30.688Z,9.40
2023-04-14T16:26:01.412Z,9.30
2023-04-14T16:28:31.741Z,9.30
2023-04-14T16:31:03.225Z,9.30
2023-04-14T16:33:34.258Z,9.30
2023-04-14T16:36:10.378Z,9.30
2023-04-14T16:38:41.737Z,9.30
2023-04-14T16:41:12.442Z,9.30
2023-04-14T16:43:44.952Z,9.40
2023-04-14T16:46:15.705Z,9.40
2023-04-14T16:48:47.184Z,9.50
2023-04-14T16:51:17.907Z,9.50
2023-04-14T16:53:48.142Z,9.60
2023-04-14T16:56:20.372Z,9.60
2023-04-14T16:58:51.445Z,9.70
2023-04-14T17:01:22.570Z,9.70
2023-04-14T17:03:53.310Z,9.70
2023-04-14T17:06:23.816Z,9.80
2023-04-14T17:08:54.687Z,9.90
2023-04-14T17:11:26.131Z,9.90
2023-04-14T17:13:56.867Z,9.90
2023-04-14T17:16:27.140Z,9.90
2023-04-14T17:18:59.901Z,10.00
2023-04-14T17:21:30.917Z,10.00
2023-04-14T17:24:01.319Z,10.00
2023-04-14T17:26:32.327Z,10.00
2023-04-14T17:29:02.988Z,9.90
2023-04-14T17:31:34.086Z,10.00
2023-04-14T17:34:05.624Z,9.90
2023-04-14T17:36:36.115Z,9.90
2023-04-14T17:39:10.066Z,9.90
2023-04-14T17:41:43.479Z,9.90
2023-04-14T17:44:16.788Z,10.00
2023-04-14T17:46:48.212Z,10.00
2023-04-14T17:49:18.872Z,10.10
2023-04-14T17:51:49.637Z,10.10
2023-04-14T17:54:23.014Z,10.10
2023-04-14T17:56:58.975Z,10.20
2023-04-14T17:59:35.406Z,10.20
2023-04-14T18:02:07.827Z,10.20
2023-04-14T18:04:41.688Z,10.20
2023-04-14T18:07:12.135Z,10.20
2023-04-14T18:09:42.676Z,10.20
2023-04-14T18:12:12.937Z,10.20
2023-04-14T18:14:43.708Z,10.20
2023-04-14T18:17:16.160Z,10.20
2023-04-14T18:19:50.349Z,10.30
2023-04-14T18:22:23.172Z,10.30
2023-04-14T18:24:54.380Z,10.30
2023-04-14T18:30:00.175Z,10.40
2023-04-14T18:32:34.303Z,10.40
2023-04-14T18:35:08.912Z,10.40
2023-04-14T18:37:41.209Z,10.50
2023-04-14T18:40:12.645Z,10.50
2023-04-14T18:42:42.988Z,10.50
2023-04-14T18:45:14.281Z,10.50
2023-04-14T18:47:45.559Z,10.50
2023-04-14T18:50:19.881Z,10.60
2023-04-14T18:52:51.497Z,10.60
2023-04-14T18:55:22.403Z,10.60
2023-04-14T18:57:55.361Z,10.60
2023-04-14T19:00:30.692Z,10.60
2023-04-14T19:03:03.029Z,10.70
2023-04-14T19:05:33.998Z,10.70
2023-04-14T19:08:04.379Z,10.70
2023-04-14T19:10:35.133Z,10.80
2023-04-14T19:13:06.717Z,10.80
2023-04-14T19:15:40.985Z,10.80
2023-04-14T19:18:19.720Z,10.80
2023-04-14T19:20:51.635Z,10.80
2023-04-14T19:23:24.738Z,10.80
2023-04-14T19:25:59.552Z,10.90
2023-04-14T19:28:31.014Z,10.80
2023-04-14T19:31:06.198Z,10.90
2023-04-14T19:33:37.304Z,10.90
2023-04-14T19:36:28.829Z,10.90
2023-04-14T19:39:02.360Z,10.90
2023-04-14T19:41:33.492Z,10.90
2023-04-14T19:44:08.395Z,11.00
2023-04-14T19:46:39.296Z,10.90
2023-04-14T19:49:10.594Z,10.90
2023-04-14T19:51:42.191Z,10.90
2023-04-14T19:54:13.111Z,10.90
2023-04-14T19:56:43.774Z,10.90
2023-04-14T19:59:17.260Z,10.90
2023-04-14T20:01:53.144Z,10.90
2023-04-14T20:04:23.907Z,10.90
2023-04-14T20:06:55.554Z,10.90
2023-04-14T20:09:28.094Z,10.80
2023-04-14T20:12:00.828Z,10.90
2023-04-14T20:14:35.049Z,10.90
2023-04-14T20:17:08.000Z,10.90
2023-04-14T20:19:41.432Z,10.90
2023-04-14T20:22:21.149Z,10.80
2023-04-14T20:24:55.097Z,10.80
2023-04-14T20:27:26.832Z,10.80
2023-04-14T20:30:02.209Z,10.80
2023-04-14T20:32:35.831Z,10.80
2023-04-14T20:35:09.661Z,10.70
2023-04-14T20:37:42.824Z,10.70
2023-04-14T20:40:14.896Z,10.70
2023-04-14T20:42:45.605Z,10.70
2023-04-14T20:45:16.515Z,10.70
2023-04-14T20:47:49.453Z,10.70
2023-04-14T20:50:20.549Z,10.70
2023-04-14T20:52:52.541Z,10.70
2023-04-14T20:55:24.203Z,10.70
2023-04-14T20:57:55.903Z,10.70
2023-04-14T21:00:27.488Z,10.60
2023-04-14T21:02:57.974Z,10.60
2023-04-14T21:05:28.524Z,10.60
2023-04-14T21:07:59.239Z,10.60
2023-04-14T21:10:29.980Z,10.60
2023-04-14T21:15:29.749Z,10.60
2023-04-14T21:15:54.852Z,10.60
2023-04-14T21:18:26.990Z,10.60
2023-04-14T21:20:58.208Z,10.60
2023-04-14T21:23:29.673Z,10.60
2023-04-14T21:26:07.280Z,10.60
2023-04-14T21:28:38.631Z,10.60
2023-04-14T21:31:10.019Z,10.70
2023-04-14T21:33:41.848Z,10.70
2023-04-14T21:36:12.947Z,10.70
2023-04-14T21:38:44.851Z,10.80
2023-04-14T21:41:16.495Z,10.90
2023-04-14T21:43:48.180Z,10.80
2023-04-14T21:46:19.264Z,10.90
2023-04-14T21:48:49.967Z,11.00
2023-04-14T21:51:20.848Z,11.00
2023-04-14T21:53:51.557Z,11.10
2023-04-14T21:56:21.940Z,11.10
2023-04-14T21:58:52.189Z,11.20
2023-04-14T22:01:23.134Z,11.30
2023-04-14T22:03:57.187Z,11.30
2023-04-14T22:06:30.716Z,11.50
2023-04-14T22:09:01.573Z,11.60
2023-04-14T22:11:32.966Z,11.60
2023-04-14T22:14:04.523Z,11.70
2023-04-14T22:16:37.386Z,11.80
2023-04-14T22:19:09.110Z,11.80
2023-04-14T22:21:41.475Z,11.90
2023-04-14T22:24:12.466Z,11.90
2023-04-14T22:26:45.197Z,12.00
2023-04-14T22:29:16.769Z,12.10
2023-04-14T22:31:48.009Z,12.20
2023-04-14T22:34:20.084Z,12.30
2023-04-14T22:36:51.567Z,12.30
2023-04-14T22:39:22.316Z,12.30
2023-04-14T22:41:53.433Z,12.40
2023-04-14T22:44:24.081Z,12.40
2023-04-14T22:46:55.342Z,12.40
2023-04-14T22:49:25.556Z,12.50
2023-04-14T22:51:56.302Z,12.50
2023-04-14T22:54:27.820Z,12.60
2023-04-14T22:56:58.615Z,12.60
2023-04-14T22:59:29.353Z,12.60
2023-04-14T23:01:59.984Z,12.70
2023-04-14T23:04:30.348Z,12.80
2023-04-14T23:07:00.649Z,12.80
2023-04-14T23:09:32.231Z,12.90
2023-04-14T23:12:04.096Z,13.00
2023-04-14T23:14:43.761Z,13.00
2023-04-14T23:17:14.657Z,13.10
2023-04-14T23:19:48.195Z,13.20
2023-04-14T23:22:19.822Z,13.20
2023-04-14T23:24:52.319Z,13.30
2023-04-14T23:27:27.565Z,13.40
2023-04-14T23:29:58.423Z,13.40
2023-04-14T23:32:30.793Z,13.50
2023-04-14T23:35:03.209Z,13.60
2023-04-14T23:37:37.260Z,13.70
2023-04-14T23:40:10.433Z,13.80
2023-04-14T23:42:44.115Z,13.90
2023-04-14T23:45:19.285Z,14.00
2023-04-14T23:47:50.453Z,14.10
2023-04-14T23:50:20.905Z,14.20
2023-04-14T23:52:52.690Z,14.40
2023-04-14T23:55:23.790Z,14.50
